sensor_id;sensor_type;location;lat;lon;timestamp;temperature;humidity
17348;DHT22;8791;50.876;4.342;2022-07-23T00:01:28;17.80;99.90
17348;DHT22;8791;50.876;4.342;2022-07-23T00:03:56;17.90;99.90
17348;DHT22;8791;50.876;4.342;2022-07-23T00:06:24;17.80;99.90
17348;DHT22;8791;50.876;4.342;2022-07-23T00:08:51;17.80;99.90
17348;DHT22;8791;50.876;4.342;2022-07-23T00:11:18;17.90;99.90
17348;DHT22;8791;50.876;4.342;2022-07-23T00:13:47;17.90;99.90
17348;DHT22;8791;50.876;4.342;2022-07-23T00:16:14;18.00;99.90
17348;DHT22;8791;50.876;4.342;2022-07-23T00:18:41;17.80;99.90
17348;DHT22;8791;50.876;4.342;2022-07-23T00:21:08;17.80;99.90
17348;DHT22;8791;50.876;4.342;2022-07-23T00:23:36;17.60;99.90
17348;DHT22;8791;50.876;4.342;2022-07-23T00:26:03;17.50;99.90
17348;DHT22;8791;50.876;4.342;2022-07-23T00:28:33;17.70;99.90
17348;DHT22;8791;50.876;4.342;2022-07-23T00:31:00;17.60;99.90
17348;DHT22;8791;50.876;4.342;2022-07-23T00:33:26;17.60;99.90
17348;DHT22;8791;50.876;4.342;2022-07-23T00:35:53;17.50;99.90
17348;DHT22;8791;50.876;4.342;2022-07-23T00:38:20;17.50;99.90
17348;DHT22;8791;50.876;4.342;2022-07-23T00:40:48;17.40;99.90
17348;DHT22;8791;50.876;4.342;2022-07-23T00:43:15;17.40;99.90
17348;DHT22;8791;50.876;4.342;2022-07-23T00:45:42;17.60;99.90
17348;DHT22;8791;50.876;4.342;2022-07-23T00:48:09;17.70;99.90
17348;DHT22;8791;50.876;4.342;2022-07-23T00:50:36;17.50;99.90
17348;DHT22;8791;50.876;4.342;2022-07-23T00:53:03;17.40;99.90
17348;DHT22;8791;50.876;4.342;2022-07-23T00:55:31;17.30;99.90
17348;DHT22;8791;50.876;4.342;2022-07-23T00:57:59;17.40;99.90
17348;DHT22;8791;50.876;4.342;2022-07-23T01:00:27;17.40;99.90
17348;DHT22;8791;50.876;4.342;2022-07-23T01:02:54;17.30;99.90
17348;DHT22;8791;50.876;4.342;2022-07-23T01:05:21;17.30;99.90
17348;DHT22;8791;50.876;4.342;2022-07-23T01:07:48;17.30;99.90
17348;DHT22;8791;50.876;4.342;2022-07-23T01:10:16;17.40;99.90
17348;DHT22;8791;50.876;4.342;2022-07-23T01:13:00;17.40;99.90
17348;DHT22;8791;50.876;4.342;2022-07-23T01:15:28;17.40;99.90
17348;DHT22;8791;50.876;4.342;2022-07-23T01:17:55;17.40;99.90
17348;DHT22;8791;50.876;4.342;2022-07-23T01:20:22;17.30;99.90
17348;DHT22;8791;50.876;4.342;2022-07-23T01:22:50;17.30;99.90
17348;DHT22;8791;50.876;4.342;2022-07-23T01:25:18;17.40;99.90
17348;DHT22;8791;50.876;4.342;2022-07-23T01:27:45;17.30;99.90
17348;DHT22;8791;50.876;4.342;2022-07-23T01:30:12;17.20;99.90
17348;DHT22;8791;50.876;4.342;2022-07-23T01:32:40;17.10;99.90
17348;DHT22;8791;50.876;4.342;2022-07-23T01:35:08;17.20;99.90
17348;DHT22;8791;50.876;4.342;2022-07-23T01:37:36;17.30;99.90
17348;DHT22;8791;50.876;4.342;2022-07-23T01:40:05;17.40;99.90
17348;DHT22;8791;50.876;4.342;2022-07-23T01:42:32;17.30;99.90
17348;DHT22;8791;50.876;4.342;2022-07-23T01:44:59;17.40;99.90
17348;DHT22;8791;50.876;4.342;2022-07-23T01:47:26;17.10;99.90
17348;DHT22;8791;50.876;4.342;2022-07-23T01:49:53;17.10;99.90
17348;DHT22;8791;50.876;4.342;2022-07-23T01:52:20;17.00;99.90
17348;DHT22;8791;50.876;4.342;2022-07-23T01:54:47;17.00;99.90
17348;DHT22;8791;50.876;4.342;2022-07-23T01:57:15;17.00;99.90
17348;DHT22;8791;50.876;4.342;2022-07-23T01:59:42;17.00;99.90
17348;DHT22;8791;50.876;4.342;2022-07-23T02:02:09;17.00;99.90
17348;DHT22;8791;50.876;4.342;2022-07-23T02:04:36;16.90;99.90
17348;DHT22;8791;50.876;4.342;2022-07-23T02:07:04;16.90;99.90
17348;DHT22;8791;50.876;4.342;2022-07-23T02:09:31;17.00;99.90
17348;DHT22;8791;50.876;4.342;2022-07-23T02:11:58;17.10;99.90
17348;DHT22;8791;50.876;4.342;2022-07-23T02:14:27;17.00;99.90
17348;DHT22;8791;50.876;4.342;2022-07-23T02:16:54;17.10;99.90
17348;DHT22;8791;50.876;4.342;2022-07-23T02:19:21;17.10;99.90
17348;DHT22;8791;50.876;4.342;2022-07-23T02:21:48;17.10;99.90
17348;DHT22;8791;50.876;4.342;2022-07-23T02:24:15;17.00;99.90
17348;DHT22;8791;50.876;4.342;2022-07-23T02:26:42;16.90;99.90
17348;DHT22;8791;50.876;4.342;2022-07-23T02:29:09;16.90;99.90
17348;DHT22;8791;50.876;4.342;2022-07-23T02:31:37;16.90;99.90
17348;DHT22;8791;50.876;4.342;2022-07-23T02:34:04;16.80;99.90
17348;DHT22;8791;50.876;4.342;2022-07-23T02:36:31;16.80;99.90
17348;DHT22;8791;50.876;4.342;2022-07-23T02:38:58;16.90;99.90
17348;DHT22;8791;50.876;4.342;2022-07-23T02:41:25;17.00;99.90
17348;DHT22;8791;50.876;4.342;2022-07-23T02:43:51;16.90;99.90
17348;DHT22;8791;50.876;4.342;2022-07-23T02:46:18;16.90;99.90
17348;DHT22;8791;50.876;4.342;2022-07-23T02:48:46;16.90;99.90
17348;DHT22;8791;50.876;4.342;2022-07-23T02:51:13;16.80;99.90
17348;DHT22;8791;50.876;4.342;2022-07-23T02:53:40;16.70;99.90
17348;DHT22;8791;50.876;4.342;2022-07-23T02:56:07;16.80;99.90
17348;DHT22;8791;50.876;4.342;2022-07-23T02:58:34;16.80;99.90
17348;DHT22;8791;50.876;4.342;2022-07-23T03:01:01;16.70;99.90
17348;DHT22;8791;50.876;4.342;2022-07-23T03:03:28;16.80;99.90
17348;DHT22;8791;50.876;4.342;2022-07-23T03:05:56;16.70;99.90
17348;DHT22;8791;50.876;4.342;2022-07-23T03:08:23;16.70;99.90
17348;DHT22;8791;50.876;4.342;2022-07-23T03:10:50;16.70;99.90
17348;DHT22;8791;50.876;4.342;2022-07-23T03:13:17;16.80;99.90
17348;DHT22;8791;50.876;4.342;2022-07-23T03:15:44;16.90;99.90
17348;DHT22;8791;50.876;4.342;2022-07-23T03:18:10;16.90;99.90
17348;DHT22;8791;50.876;4.342;2022-07-23T03:20:37;16.80;99.90
17348;DHT22;8791;50.876;4.342;2022-07-23T03:23:05;16.70;99.90
17348;DHT22;8791;50.876;4.342;2022-07-23T03:25:32;16.70;99.90
17348;DHT22;8791;50.876;4.342;2022-07-23T03:27:59;16.70;99.90
17348;DHT22;8791;50.876;4.342;2022-07-23T03:30:26;16.70;99.90
17348;DHT22;8791;50.876;4.342;2022-07-23T03:32:53;16.60;99.90
17348;DHT22;8791;50.876;4.342;2022-07-23T03:35:20;16.50;99.90
17348;DHT22;8791;50.876;4.342;2022-07-23T03:37:47;16.50;99.90
17348;DHT22;8791;50.876;4.342;2022-07-23T03:40:15;16.70;99.90
17348;DHT22;8791;50.876;4.342;2022-07-23T03:42:42;16.80;99.90
17348;DHT22;8791;50.876;4.342;2022-07-23T03:45:11;16.80;99.90
17348;DHT22;8791;50.876;4.342;2022-07-23T03:47:38;16.70;99.90
17348;DHT22;8791;50.876;4.342;2022-07-23T03:50:06;16.70;99.90
17348;DHT22;8791;50.876;4.342;2022-07-23T03:52:33;16.60;99.90
17348;DHT22;8791;50.876;4.342;2022-07-23T03:55:00;16.60;99.90
17348;DHT22;8791;50.876;4.342;2022-07-23T03:57:29;16.60;99.90
17348;DHT22;8791;50.876;4.342;2022-07-23T03:59:56;16.50;99.90
17348;DHT22;8791;50.876;4.342;2022-07-23T04:02:24;16.50;99.90
17348;DHT22;8791;50.876;4.342;2022-07-23T04:04:51;16.50;99.90
17348;DHT22;8791;50.876;4.342;2022-07-23T04:07:18;16.40;99.90
17348;DHT22;8791;50.876;4.342;2022-07-23T04:09:44;16.40;99.90
17348;DHT22;8791;50.876;4.342;2022-07-23T04:12:11;16.60;99.90
17348;DHT22;8791;50.876;4.342;2022-07-23T04:14:39;16.60;99.90
17348;DHT22;8791;50.876;4.342;2022-07-23T04:17:06;16.60;99.90
17348;DHT22;8791;50.876;4.342;2022-07-23T04:19:33;16.70;99.90
17348;DHT22;8791;50.876;4.342;2022-07-23T04:22:01;16.80;99.90
17348;DHT22;8791;50.876;4.342;2022-07-23T04:24:28;16.80;99.90
17348;DHT22;8791;50.876;4.342;2022-07-23T04:26:55;17.00;99.90
17348;DHT22;8791;50.876;4.342;2022-07-23T04:29:22;16.80;99.90
17348;DHT22;8791;50.876;4.342;2022-07-23T04:31:50;16.80;99.90
17348;DHT22;8791;50.876;4.342;2022-07-23T04:34:17;16.70;99.90
17348;DHT22;8791;50.876;4.342;2022-07-23T04:36:44;16.70;99.90
17348;DHT22;8791;50.876;4.342;2022-07-23T04:39:11;16.80;99.90
17348;DHT22;8791;50.876;4.342;2022-07-23T04:41:38;17.00;99.90
17348;DHT22;8791;50.876;4.342;2022-07-23T04:44:05;17.40;99.90
17348;DHT22;8791;50.876;4.342;2022-07-23T04:46:32;17.70;99.90
17348;DHT22;8791;50.876;4.342;2022-07-23T04:49:00;17.70;99.90
17348;DHT22;8791;50.876;4.342;2022-07-23T04:51:27;18.00;99.90
17348;DHT22;8791;50.876;4.342;2022-07-23T04:53:54;18.20;99.90
17348;DHT22;8791;50.876;4.342;2022-07-23T04:56:21;18.40;99.90
17348;DHT22;8791;50.876;4.342;2022-07-23T04:58:48;18.50;99.90
17348;DHT22;8791;50.876;4.342;2022-07-23T05:01:15;18.60;99.90
17348;DHT22;8791;50.876;4.342;2022-07-23T05:03:41;18.70;99.90
17348;DHT22;8791;50.876;4.342;2022-07-23T05:06:10;19.10;99.90
17348;DHT22;8791;50.876;4.342;2022-07-23T05:08:37;19.30;99.90
17348;DHT22;8791;50.876;4.342;2022-07-23T05:11:03;19.60;99.90
17348;DHT22;8791;50.876;4.342;2022-07-23T05:13:30;19.80;99.90
17348;DHT22;8791;50.876;4.342;2022-07-23T05:15:57;20.00;99.90
17348;DHT22;8791;50.876;4.342;2022-07-23T05:18:24;20.10;99.90
17348;DHT22;8791;50.876;4.342;2022-07-23T05:20:51;20.20;99.90
17348;DHT22;8791;50.876;4.342;2022-07-23T05:23:19;20.30;99.90
17348;DHT22;8791;50.876;4.342;2022-07-23T05:25:46;20.40;99.90
17348;DHT22;8791;50.876;4.342;2022-07-23T05:28:13;20.20;99.90
17348;DHT22;8791;50.876;4.342;2022-07-23T05:30:40;19.70;99.90
17348;DHT22;8791;50.876;4.342;2022-07-23T05:33:07;19.50;99.90
17348;DHT22;8791;50.876;4.342;2022-07-23T05:35:34;19.10;99.90
17348;DHT22;8791;50.876;4.342;2022-07-23T05:38:00;18.80;99.90
17348;DHT22;8791;50.876;4.342;2022-07-23T05:40:29;18.70;99.90
17348;DHT22;8791;50.876;4.342;2022-07-23T05:42:56;18.30;99.90
17348;DHT22;8791;50.876;4.342;2022-07-23T05:45:22;18.30;99.90
17348;DHT22;8791;50.876;4.342;2022-07-23T05:47:50;18.40;99.90
17348;DHT22;8791;50.876;4.342;2022-07-23T05:50:17;18.20;99.90
17348;DHT22;8791;50.876;4.342;2022-07-23T05:52:44;18.20;99.90
17348;DHT22;8791;50.876;4.342;2022-07-23T05:55:11;18.20;99.90
17348;DHT22;8791;50.876;4.342;2022-07-23T05:57:40;18.10;99.90
17348;DHT22;8791;50.876;4.342;2022-07-23T06:00:09;18.10;99.90
17348;DHT22;8791;50.876;4.342;2022-07-23T06:02:37;17.90;99.90
17348;DHT22;8791;50.876;4.342;2022-07-23T06:05:05;17.90;99.90
17348;DHT22;8791;50.876;4.342;2022-07-23T06:07:35;17.90;99.90
17348;DHT22;8791;50.876;4.342;2022-07-23T06:10:03;18.00;99.90
17348;DHT22;8791;50.876;4.342;2022-07-23T06:12:30;18.00;99.90
17348;DHT22;8791;50.876;4.342;2022-07-23T06:14:58;18.10;99.90
17348;DHT22;8791;50.876;4.342;2022-07-23T06:17:26;18.20;99.90
17348;DHT22;8791;50.876;4.342;2022-07-23T06:19:53;18.30;99.90
17348;DHT22;8791;50.876;4.342;2022-07-23T06:22:20;18.30;99.90
17348;DHT22;8791;50.876;4.342;2022-07-23T06:24:47;18.20;99.90
17348;DHT22;8791;50.876;4.342;2022-07-23T06:27:14;18.30;99.90
17348;DHT22;8791;50.876;4.342;2022-07-23T06:29:41;18.30;99.90
17348;DHT22;8791;50.876;4.342;2022-07-23T06:32:10;18.20;99.90
17348;DHT22;8791;50.876;4.342;2022-07-23T06:34:37;18.10;99.90
17348;DHT22;8791;50.876;4.342;2022-07-23T06:37:04;18.10;99.90
17348;DHT22;8791;50.876;4.342;2022-07-23T06:39:31;18.30;99.90
17348;DHT22;8791;50.876;4.342;2022-07-23T06:41:58;18.50;99.90
17348;DHT22;8791;50.876;4.342;2022-07-23T06:44:26;18.60;99.90
17348;DHT22;8791;50.876;4.342;2022-07-23T06:46:53;18.60;99.90
17348;DHT22;8791;50.876;4.342;2022-07-23T06:49:21;18.70;99.90
17348;DHT22;8791;50.876;4.342;2022-07-23T06:51:48;18.90;99.90
17348;DHT22;8791;50.876;4.342;2022-07-23T06:54:15;18.90;99.90
17348;DHT22;8791;50.876;4.342;2022-07-23T06:56:42;18.90;99.90
17348;DHT22;8791;50.876;4.342;2022-07-23T06:59:09;19.10;99.90
17348;DHT22;8791;50.876;4.342;2022-07-23T07:01:36;19.00;99.90
17348;DHT22;8791;50.876;4.342;2022-07-23T07:04:03;19.00;99.90
17348;DHT22;8791;50.876;4.342;2022-07-23T07:06:31;19.10;99.90
17348;DHT22;8791;50.876;4.342;2022-07-23T07:08:58;19.20;99.90
17348;DHT22;8791;50.876;4.342;2022-07-23T07:11:25;19.30;99.90
17348;DHT22;8791;50.876;4.342;2022-07-23T07:13:52;19.30;99.90
17348;DHT22;8791;50.876;4.342;2022-07-23T07:16:19;19.50;99.90
17348;DHT22;8791;50.876;4.342;2022-07-23T07:18:46;19.60;99.90
17348;DHT22;8791;50.876;4.342;2022-07-23T07:21:13;19.60;99.90
17348;DHT22;8791;50.876;4.342;2022-07-23T07:23:41;19.80;99.90
17348;DHT22;8791;50.876;4.342;2022-07-23T07:26:08;19.90;99.90
17348;DHT22;8791;50.876;4.342;2022-07-23T07:28:35;19.80;99.90
17348;DHT22;8791;50.876;4.342;2022-07-23T07:31:02;20.00;99.90
17348;DHT22;8791;50.876;4.342;2022-07-23T07:33:29;19.80;99.90
17348;DHT22;8791;50.876;4.342;2022-07-23T07:35:55;19.90;99.90
17348;DHT22;8791;50.876;4.342;2022-07-23T07:38:22;20.00;99.90
17348;DHT22;8791;50.876;4.342;2022-07-23T07:40:50;20.00;99.90
17348;DHT22;8791;50.876;4.342;2022-07-23T07:43:17;20.20;99.90
17348;DHT22;8791;50.876;4.342;2022-07-23T07:45:44;20.10;99.90
17348;DHT22;8791;50.876;4.342;2022-07-23T07:48:12;20.40;99.90
17348;DHT22;8791;50.876;4.342;2022-07-23T07:50:39;20.60;99.90
17348;DHT22;8791;50.876;4.342;2022-07-23T07:53:05;20.50;99.90
17348;DHT22;8791;50.876;4.342;2022-07-23T07:55:32;20.50;99.90
17348;DHT22;8791;50.876;4.342;2022-07-23T07:58:01;20.60;99.90
17348;DHT22;8791;50.876;4.342;2022-07-23T08:00:28;20.70;99.90
17348;DHT22;8791;50.876;4.342;2022-07-23T08:02:55;20.70;99.90
17348;DHT22;8791;50.876;4.342;2022-07-23T08:05:24;20.70;99.90
17348;DHT22;8791;50.876;4.342;2022-07-23T08:07:51;20.70;99.90
17348;DHT22;8791;50.876;4.342;2022-07-23T08:10:19;20.70;99.90
17348;DHT22;8791;50.876;4.342;2022-07-23T08:12:47;20.70;99.90
17348;DHT22;8791;50.876;4.342;2022-07-23T08:15:17;20.80;99.90
17348;DHT22;8791;50.876;4.342;2022-07-23T08:17:45;20.80;99.90
17348;DHT22;8791;50.876;4.342;2022-07-23T08:20:14;20.70;99.90
17348;DHT22;8791;50.876;4.342;2022-07-23T08:22:45;20.80;99.90
17348;DHT22;8791;50.876;4.342;2022-07-23T08:25:13;21.00;99.90
17348;DHT22;8791;50.876;4.342;2022-07-23T08:27:41;21.20;99.90
17348;DHT22;8791;50.876;4.342;2022-07-23T08:30:08;21.30;99.90
17348;DHT22;8791;50.876;4.342;2022-07-23T08:32:50;21.50;99.90
17348;DHT22;8791;50.876;4.342;2022-07-23T08:35:17;21.40;99.90
17348;DHT22;8791;50.876;4.342;2022-07-23T08:37:44;21.60;99.90
17348;DHT22;8791;50.876;4.342;2022-07-23T08:40:11;21.60;99.90
17348;DHT22;8791;50.876;4.342;2022-07-23T08:42:39;21.70;99.90
17348;DHT22;8791;50.876;4.342;2022-07-23T08:45:08;21.50;99.90
17348;DHT22;8791;50.876;4.342;2022-07-23T08:47:37;21.50;99.90
17348;DHT22;8791;50.876;4.342;2022-07-23T08:50:07;21.40;99.90
17348;DHT22;8791;50.876;4.342;2022-07-23T08:52:36;21.70;99.90
17348;DHT22;8791;50.876;4.342;2022-07-23T08:55:04;21.70;99.90
17348;DHT22;8791;50.876;4.342;2022-07-23T08:57:31;21.60;99.90
17348;DHT22;8791;50.876;4.342;2022-07-23T08:59:58;21.80;99.90
17348;DHT22;8791;50.876;4.342;2022-07-23T09:02:25;21.80;99.90
17348;DHT22;8791;50.876;4.342;2022-07-23T09:04:52;21.80;99.90
17348;DHT22;8791;50.876;4.342;2022-07-23T09:07:20;21.80;99.90
17348;DHT22;8791;50.876;4.342;2022-07-23T09:10:04;21.70;99.90
17348;DHT22;8791;50.876;4.342;2022-07-23T09:12:31;21.90;99.90
17348;DHT22;8791;50.876;4.342;2022-07-23T09:15:03;22.00;99.90
17348;DHT22;8791;50.876;4.342;2022-07-23T09:17:37;22.30;99.90
17348;DHT22;8791;50.876;4.342;2022-07-23T09:20:09;22.30;99.90
17348;DHT22;8791;50.876;4.342;2022-07-23T09:22:38;22.30;99.90
17348;DHT22;8791;50.876;4.342;2022-07-23T09:25:09;22.40;99.90
17348;DHT22;8791;50.876;4.342;2022-07-23T09:27:48;22.30;99.90
17348;DHT22;8791;50.876;4.342;2022-07-23T09:30:15;22.30;99.90
17348;DHT22;8791;50.876;4.342;2022-07-23T09:32:42;22.20;99.90
17348;DHT22;8791;50.876;4.342;2022-07-23T09:35:09;22.30;99.90
17348;DHT22;8791;50.876;4.342;2022-07-23T09:37:38;22.40;99.90
17348;DHT22;8791;50.876;4.342;2022-07-23T09:40:07;22.60;99.90
17348;DHT22;8791;50.876;4.342;2022-07-23T09:42:34;22.80;99.90
17348;DHT22;8791;50.876;4.342;2022-07-23T09:45:02;23.00;99.90
17348;DHT22;8791;50.876;4.342;2022-07-23T09:47:31;23.00;99.90
17348;DHT22;8791;50.876;4.342;2022-07-23T09:50:00;23.00;99.90
17348;DHT22;8791;50.876;4.342;2022-07-23T09:52:28;23.20;99.90
17348;DHT22;8791;50.876;4.342;2022-07-23T09:55:00;23.20;99.90
17348;DHT22;8791;50.876;4.342;2022-07-23T09:57:28;23.10;99.90
17348;DHT22;8791;50.876;4.342;2022-07-23T09:59:58;23.10;99.90
17348;DHT22;8791;50.876;4.342;2022-07-23T10:02:28;23.30;99.90
17348;DHT22;8791;50.876;4.342;2022-07-23T10:04:58;23.40;99.90
17348;DHT22;8791;50.876;4.342;2022-07-23T10:07:26;23.50;99.90
17348;DHT22;8791;50.876;4.342;2022-07-23T10:09:56;23.50;99.90
17348;DHT22;8791;50.876;4.342;2022-07-23T10:12:25;23.60;99.90
17348;DHT22;8791;50.876;4.342;2022-07-23T10:15:09;23.60;99.90
17348;DHT22;8791;50.876;4.342;2022-07-23T10:17:36;23.40;99.90
17348;DHT22;8791;50.876;4.342;2022-07-23T10:20:04;23.30;99.90
17348;DHT22;8791;50.876;4.342;2022-07-23T10:22:35;23.30;99.90
17348;DHT22;8791;50.876;4.342;2022-07-23T10:25:12;23.30;99.90
17348;DHT22;8791;50.876;4.342;2022-07-23T10:28:04;23.40;99.90
17348;DHT22;8791;50.876;4.342;2022-07-23T10:30:41;23.30;99.90
17348;DHT22;8791;50.876;4.342;2022-07-23T10:33:17;23.60;99.90
17348;DHT22;8791;50.876;4.342;2022-07-23T10:35:50;23.90;99.90
17348;DHT22;8791;50.876;4.342;2022-07-23T10:38:24;24.00;99.90
17348;DHT22;8791;50.876;4.342;2022-07-23T10:40:57;24.10;99.90
17348;DHT22;8791;50.876;4.342;2022-07-23T10:43:28;24.20;99.90
17348;DHT22;8791;50.876;4.342;2022-07-23T10:45:56;24.50;99.90
17348;DHT22;8791;50.876;4.342;2022-07-23T10:48:42;24.40;99.90
17348;DHT22;8791;50.876;4.342;2022-07-23T10:51:12;24.40;99.90
17348;DHT22;8791;50.876;4.342;2022-07-23T10:54:00;24.20;99.90
17348;DHT22;8791;50.876;4.342;2022-07-23T10:59:32;24.60;99.90
17348;DHT22;8791;50.876;4.342;2022-07-23T11:02:22;24.50;99.90
17348;DHT22;8791;50.876;4.342;2022-07-23T11:04:52;24.80;99.90
17348;DHT22;8791;50.876;4.342;2022-07-23T11:07:19;24.90;99.90
17348;DHT22;8791;50.876;4.342;2022-07-23T11:09:46;25.00;99.90
17348;DHT22;8791;50.876;4.342;2022-07-23T11:12:40;25.00;99.90
17348;DHT22;8791;50.876;4.342;2022-07-23T11:15:09;24.90;99.90
17348;DHT22;8791;50.876;4.342;2022-07-23T11:17:39;25.00;99.90
17348;DHT22;8791;50.876;4.342;2022-07-23T11:20:20;25.20;99.90
17348;DHT22;8791;50.876;4.342;2022-07-23T11:22:54;25.20;99.90
17348;DHT22;8791;50.876;4.342;2022-07-23T11:25:34;25.10;99.90
17348;DHT22;8791;50.876;4.342;2022-07-23T11:28:15;25.30;99.90
17348;DHT22;8791;50.876;4.342;2022-07-23T11:30:44;25.50;99.90
17348;DHT22;8791;50.876;4.342;2022-07-23T11:33:20;25.70;99.90
17348;DHT22;8791;50.876;4.342;2022-07-23T11:35:49;25.70;99.90
17348;DHT22;8791;50.876;4.342;2022-07-23T11:38:18;25.90;99.90
17348;DHT22;8791;50.876;4.342;2022-07-23T11:40:47;25.90;99.90
17348;DHT22;8791;50.876;4.342;2022-07-23T11:43:14;26.00;99.90
17348;DHT22;8791;50.876;4.342;2022-07-23T11:45:47;26.00;99.90
17348;DHT22;8791;50.876;4.342;2022-07-23T11:48:19;25.90;99.90
17348;DHT22;8791;50.876;4.342;2022-07-23T11:50:47;25.90;99.90
17348;DHT22;8791;50.876;4.342;2022-07-23T11:53:21;26.00;99.90
17348;DHT22;8791;50.876;4.342;2022-07-23T11:55:49;25.70;99.90
17348;DHT22;8791;50.876;4.342;2022-07-23T11:58:15;25.40;99.90
17348;DHT22;8791;50.876;4.342;2022-07-23T12:00:44;25.40;99.90
17348;DHT22;8791;50.876;4.342;2022-07-23T12:03:11;25.70;99.90
17348;DHT22;8791;50.876;4.342;2022-07-23T12:05:38;25.70;99.90
17348;DHT22;8791;50.876;4.342;2022-07-23T12:08:07;25.40;99.90
17348;DHT22;8791;50.876;4.342;2022-07-23T12:10:36;25.60;99.90
17348;DHT22;8791;50.876;4.342;2022-07-23T12:13:04;25.60;99.90
17348;DHT22;8791;50.876;4.342;2022-07-23T12:15:34;25.50;99.90
17348;DHT22;8791;50.876;4.342;2022-07-23T12:18:05;25.40;99.90
17348;DHT22;8791;50.876;4.342;2022-07-23T12:20:34;25.70;99.90
17348;DHT22;8791;50.876;4.342;2022-07-23T12:23:04;25.70;99.90
17348;DHT22;8791;50.876;4.342;2022-07-23T12:25:33;25.90;99.90
17348;DHT22;8791;50.876;4.342;2022-07-23T12:28:03;25.90;99.90
17348;DHT22;8791;50.876;4.342;2022-07-23T12:30:32;25.70;99.90
17348;DHT22;8791;50.876;4.342;2022-07-23T12:33:02;25.70;99.90
17348;DHT22;8791;50.876;4.342;2022-07-23T12:35:36;26.10;99.90
17348;DHT22;8791;50.876;4.342;2022-07-23T12:38:07;26.30;99.90
17348;DHT22;8791;50.876;4.342;2022-07-23T12:40:36;26.50;99.90
17348;DHT22;8791;50.876;4.342;2022-07-23T12:43:07;26.90;99.90
17348;DHT22;8791;50.876;4.342;2022-07-23T12:45:46;27.00;99.90
17348;DHT22;8791;50.876;4.342;2022-07-23T12:48:18;27.20;99.90
17348;DHT22;8791;50.876;4.342;2022-07-23T12:50:54;27.20;99.90
17348;DHT22;8791;50.876;4.342;2022-07-23T12:53:23;26.90;99.90
17348;DHT22;8791;50.876;4.342;2022-07-23T12:55:53;26.90;99.90
17348;DHT22;8791;50.876;4.342;2022-07-23T12:58:23;26.80;99.90
17348;DHT22;8791;50.876;4.342;2022-07-23T13:01:01;26.90;99.90
17348;DHT22;8791;50.876;4.342;2022-07-23T13:03:35;27.10;99.90
17348;DHT22;8791;50.876;4.342;2022-07-23T13:06:06;27.20;99.90
17348;DHT22;8791;50.876;4.342;2022-07-23T13:08:34;27.20;99.90
17348;DHT22;8791;50.876;4.342;2022-07-23T13:11:02;27.20;99.90
17348;DHT22;8791;50.876;4.342;2022-07-23T13:13:32;27.30;99.90
17348;DHT22;8791;50.876;4.342;2022-07-23T13:16:00;27.40;99.90
17348;DHT22;8791;50.876;4.342;2022-07-23T13:18:27;27.60;99.90
17348;DHT22;8791;50.876;4.342;2022-07-23T13:20:55;27.80;99.90
17348;DHT22;8791;50.876;4.342;2022-07-23T13:23:23;27.90;99.90
17348;DHT22;8791;50.876;4.342;2022-07-23T13:25:51;27.80;99.90
17348;DHT22;8791;50.876;4.342;2022-07-23T13:28:19;27.90;99.90
17348;DHT22;8791;50.876;4.342;2022-07-23T13:30:48;27.90;99.90
17348;DHT22;8791;50.876;4.342;2022-07-23T13:33:17;27.50;99.90
17348;DHT22;8791;50.876;4.342;2022-07-23T13:35:44;27.50;99.90
17348;DHT22;8791;50.876;4.342;2022-07-23T13:38:11;27.50;99.90
17348;DHT22;8791;50.876;4.342;2022-07-23T13:40:41;27.40;99.90
17348;DHT22;8791;50.876;4.342;2022-07-23T13:43:19;27.20;99.90
17348;DHT22;8791;50.876;4.342;2022-07-23T13:45:47;27.40;99.90
17348;DHT22;8791;50.876;4.342;2022-07-23T13:48:15;27.60;99.90
17348;DHT22;8791;50.876;4.342;2022-07-23T13:50:43;27.80;99.90
17348;DHT22;8791;50.876;4.342;2022-07-23T13:53:12;28.10;99.90
17348;DHT22;8791;50.876;4.342;2022-07-23T13:55:42;27.90;99.90
17348;DHT22;8791;50.876;4.342;2022-07-23T13:58:10;28.00;99.90
17348;DHT22;8791;50.876;4.342;2022-07-23T14:00:39;28.10;99.90
17348;DHT22;8791;50.876;4.342;2022-07-23T14:03:07;28.20;99.90
17348;DHT22;8791;50.876;4.342;2022-07-23T14:05:34;28.00;99.90
17348;DHT22;8791;50.876;4.342;2022-07-23T14:08:02;28.00;99.90
17348;DHT22;8791;50.876;4.342;2022-07-23T14:10:30;28.20;99.90
17348;DHT22;8791;50.876;4.342;2022-07-23T14:12:59;28.60;99.90
17348;DHT22;8791;50.876;4.342;2022-07-23T14:15:27;28.50;99.90
17348;DHT22;8791;50.876;4.342;2022-07-23T14:17:54;28.60;99.90
17348;DHT22;8791;50.876;4.342;2022-07-23T14:20:22;28.80;99.90
17348;DHT22;8791;50.876;4.342;2022-07-23T14:22:49;29.10;99.90
17348;DHT22;8791;50.876;4.342;2022-07-23T14:25:17;29.30;99.90
17348;DHT22;8791;50.876;4.342;2022-07-23T14:27:44;28.80;99.90
17348;DHT22;8791;50.876;4.342;2022-07-23T14:30:13;28.70;99.90
17348;DHT22;8791;50.876;4.342;2022-07-23T14:32:41;28.70;99.90
17348;DHT22;8791;50.876;4.342;2022-07-23T14:35:09;28.90;99.90
17348;DHT22;8791;50.876;4.342;2022-07-23T14:37:35;29.10;99.90
17348;DHT22;8791;50.876;4.342;2022-07-23T14:40:03;29.20;99.90
17348;DHT22;8791;50.876;4.342;2022-07-23T14:42:30;28.80;99.90
17348;DHT22;8791;50.876;4.342;2022-07-23T14:44:57;28.90;99.90
17348;DHT22;8791;50.876;4.342;2022-07-23T14:47:26;28.90;99.90
17348;DHT22;8791;50.876;4.342;2022-07-23T14:49:53;28.90;99.90
17348;DHT22;8791;50.876;4.342;2022-07-23T14:52:19;28.60;99.90
17348;DHT22;8791;50.876;4.342;2022-07-23T14:54:47;28.30;99.90
17348;DHT22;8791;50.876;4.342;2022-07-23T14:57:14;28.30;99.90
17348;DHT22;8791;50.876;4.342;2022-07-23T14:59:41;28.30;99.90
17348;DHT22;8791;50.876;4.342;2022-07-23T15:02:09;28.30;99.90
17348;DHT22;8791;50.876;4.342;2022-07-23T15:04:40;28.40;99.90
17348;DHT22;8791;50.876;4.342;2022-07-23T15:07:07;28.40;99.90
17348;DHT22;8791;50.876;4.342;2022-07-23T15:09:33;28.40;99.90
17348;DHT22;8791;50.876;4.342;2022-07-23T15:12:00;28.40;99.90
17348;DHT22;8791;50.876;4.342;2022-07-23T15:14:28;28.10;99.90
17348;DHT22;8791;50.876;4.342;2022-07-23T15:16:55;28.30;99.90
17348;DHT22;8791;50.876;4.342;2022-07-23T15:19:22;28.60;99.90
17348;DHT22;8791;50.876;4.342;2022-07-23T15:21:50;28.70;99.90
17348;DHT22;8791;50.876;4.342;2022-07-23T15:24:17;28.80;99.90
17348;DHT22;8791;50.876;4.342;2022-07-23T15:26:44;28.90;99.90
17348;DHT22;8791;50.876;4.342;2022-07-23T15:29:11;28.90;99.90
17348;DHT22;8791;50.876;4.342;2022-07-23T15:31:38;28.90;99.90
17348;DHT22;8791;50.876;4.342;2022-07-23T15:34:05;29.30;99.90
17348;DHT22;8791;50.876;4.342;2022-07-23T15:36:32;30.70;99.90
17348;DHT22;8791;50.876;4.342;2022-07-23T15:39:00;31.40;99.90
17348;DHT22;8791;50.876;4.342;2022-07-23T15:41:27;32.30;97.70
17348;DHT22;8791;50.876;4.342;2022-07-23T15:43:54;32.70;95.10
17348;DHT22;8791;50.876;4.342;2022-07-23T15:46:22;32.90;93.70
17348;DHT22;8791;50.876;4.342;2022-07-23T15:48:49;32.90;92.80
17348;DHT22;8791;50.876;4.342;2022-07-23T15:51:16;33.20;91.40
17348;DHT22;8791;50.876;4.342;2022-07-23T15:53:43;32.90;90.70
17348;DHT22;8791;50.876;4.342;2022-07-23T15:56:12;32.20;91.40